createdAt,value
2022-08-17T00:00:15.766Z,100445.34
2022-08-17T00:03:00.331Z,100451.59
2022-08-17T00:05:31.361Z,100459.31
2022-08-17T00:07:58.445Z,100451.09
2022-08-17T00:10:25.078Z,100455.47
2022-08-17T00:12:53.108Z,100446.75
2022-08-17T00:15:19.830Z,100451.41
2022-08-17T00:17:46.334Z,100451.09
2022-08-17T00:20:12.724Z,100451.09
2022-08-17T00:22:39.121Z,100450.91
2022-08-17T00:25:05.558Z,100450.59
2022-08-17T00:27:31.885Z,100456.56
2022-08-17T00:29:58.399Z,100450.59
2022-08-17T00:33:13.920Z,100460.41
2022-08-17T00:35:11.335Z,100459.31
2022-08-17T00:37:37.666Z,100451.41
2022-08-17T00:40:03.999Z,100456.03
2022-08-17T00:42:31.381Z,100448.69
2022-08-17T00:44:57.873Z,100452.22
2022-08-17T00:47:24.374Z,100450.59
2022-08-17T00:49:50.907Z,100444.63
2022-08-17T00:52:17.357Z,100441.91
2022-08-17T00:54:44.905Z,100441.91
2022-08-17T00:57:11.202Z,100433.22
2022-08-17T00:59:37.844Z,100446.53
2022-08-17T01:02:04.482Z,100446.53
2022-08-17T01:04:31.401Z,100448.47
2022-08-17T01:06:57.895Z,100450.38
2022-08-17T01:09:24.431Z,100455.56
2022-08-17T01:11:50.858Z,100451.22
2022-08-17T01:14:19.854Z,100454.22
2022-08-17T01:16:46.263Z,100460.53
2022-08-17T01:19:12.770Z,100449.88
2022-08-17T01:21:39.306Z,100447.16
2022-08-17T01:24:05.721Z,100455.34
2022-08-17T01:26:33.254Z,100451.78
2022-08-17T01:28:59.795Z,100445.84
2022-08-17T01:31:26.242Z,100446.63
2022-08-17T01:33:52.743Z,100450.19
2022-08-17T01:36:19.366Z,100447.94
2022-08-17T01:38:45.984Z,100448.56
2022-08-17T01:41:12.488Z,100452.91
2022-08-17T01:43:39.087Z,100450.19
2022-08-17T01:46:05.913Z,100454.03
2022-08-17T01:48:32.850Z,100457.56
2022-08-17T01:50:59.259Z,100458.69
2022-08-17T01:53:25.654Z,100462.22
2022-08-17T01:55:52.179Z,100458.16
2022-08-17T01:58:20.575Z,100454.63
2022-08-17T02:01:00.044Z,100456.53
2022-08-17T02:03:27.800Z,100462.81
2022-08-17T02:05:54.143Z,100460.38
2022-08-17T02:08:20.710Z,100463.94
2022-08-17T02:11:04.025Z,100467.47
2022-08-17T02:13:37.853Z,100460.09
2022-08-17T02:16:10.562Z,100465.56
2022-08-17T02:18:36.975Z,100465.56
2022-08-17T02:21:03.498Z,100463.94
2022-08-17T02:23:29.889Z,100463.41
2022-08-17T02:25:56.229Z,100460.69
2022-08-17T02:28:22.602Z,100461.50
2022-08-17T02:31:01.462Z,100465.84
2022-08-17T02:33:42.110Z,100458.78
2022-08-17T02:36:09.699Z,100458.78
2022-08-17T02:38:36.179Z,100459.06
2022-08-17T02:41:02.626Z,100462.09
2022-08-17T02:43:30.241Z,100457.16
2022-08-17T02:45:56.622Z,100453.59
2022-08-17T02:48:30.992Z,100454.19
2022-08-17T02:50:58.052Z,100454.72
2022-08-17T02:53:24.605Z,100449.25
2022-08-17T02:55:52.127Z,100453.91
2022-08-17T02:58:35.031Z,100456.63
2022-08-17T03:01:02.129Z,100462.09
2022-08-17T03:03:30.320Z,100466.72
2022-08-17T03:06:00.941Z,100456.94
2022-08-17T03:08:28.771Z,100453.06
2022-08-17T03:10:55.112Z,100458.03
2022-08-17T03:13:21.423Z,100458.88
2022-08-17T03:15:48.062Z,100458.88
2022-08-17T03:18:24.257Z,100465.13
2022-08-17T03:20:51.652Z,100469.78
2022-08-17T03:23:23.710Z,100471.41
2022-08-17T03:25:53.157Z,100472.50
2022-08-17T03:28:20.040Z,100467.34
2022-08-17T03:30:46.507Z,100469.56
2022-08-17T03:33:12.887Z,100468.44
2022-08-17T03:35:40.983Z,100470.09
2022-08-17T03:38:07.345Z,100469.56
2022-08-17T03:40:55.403Z,100460.25
2022-08-17T03:43:20.392Z,100457.84
2022-08-17T03:45:46.861Z,100459.75
2022-08-17T03:48:13.343Z,100460.25
2022-08-17T03:50:39.734Z,100464.38
2022-08-17T03:53:06.281Z,100455.91
2022-08-17T03:55:36.316Z,100453.47
2022-08-17T03:58:03.062Z,100453.47
2022-08-17T04:00:29.597Z,100455.69
2022-08-17T04:02:57.274Z,100459.75
2022-08-17T04:05:23.721Z,100448.34
2022-08-17T04:07:50.267Z,100455.41
2022-08-17T04:10:16.742Z,100453.78
2022-08-17T04:12:43.135Z,100451.06
2022-08-17T04:15:09.705Z,100467.44
2022-08-17T04:17:36.109Z,100461.16
2022-08-17T04:20:05.158Z,100460.88
2022-08-17T04:22:34.208Z,100461.16
2022-08-17T04:25:01.293Z,100463.06
2022-08-17T04:27:27.761Z,100462.78
2022-08-17T04:29:56.119Z,100460.88
2022-08-17T04:33:03.409Z,100461.16
2022-08-17T04:35:09.274Z,100467.75
2022-08-17T04:37:35.674Z,100461.44
2022-08-17T04:40:04.269Z,100458.72
2022-08-17T04:42:31.310Z,100472.38
2022-08-17T04:44:57.675Z,100463.34
2022-08-17T04:47:24.567Z,100467.44
2022-08-17T04:49:51.141Z,100463.06
2022-08-17T04:52:32.316Z,100471.25
2022-08-17T04:55:03.842Z,100471.56
2022-08-17T04:57:30.506Z,100469.66
2022-08-17T05:00:06.308Z,100470.75
2022-08-17T05:02:32.773Z,100474.00
2022-08-17T05:04:59.404Z,100476.22
2022-08-17T05:07:31.315Z,100479.75
2022-08-17T05:09:58.014Z,100484.41
2022-08-17T05:12:24.369Z,100480.84
2022-08-17T05:14:50.966Z,100480.06
2022-08-17T05:17:17.387Z,100481.97
2022-08-17T05:19:51.738Z,100486.59
2022-08-17T05:22:18.495Z,100481.97
2022-08-17T05:24:53.468Z,100490.16
2022-08-17T05:27:20.660Z,100490.97
2022-08-17T05:29:46.964Z,100485.53
2022-08-17T05:32:38.643Z,100497.47
2022-08-17T05:35:00.271Z,100492.31
2022-08-17T05:37:27.279Z,100495.63
2022-08-17T05:39:53.760Z,100500.59
2022-08-17T05:42:20.178Z,100504.69
2022-08-17T05:44:46.480Z,100509.84
2022-08-17T05:47:12.824Z,100505.22
2022-08-17T05:49:39.167Z,100502.19
2022-08-17T05:52:05.778Z,100511.19
2022-08-17T05:54:32.085Z,100513.63
2022-08-17T05:56:58.499Z,100508.97
2022-08-17T05:59:24.938Z,100518.28
2022-08-17T06:01:51.466Z,100505.72
2022-08-17T06:04:17.788Z,100521.00
2022-08-17T06:06:44.181Z,100512.81
2022-08-17T06:09:10.455Z,100519.06
2022-08-17T06:11:37.206Z,100520.41
2022-08-17T06:14:03.754Z,100523.75
2022-08-17T06:16:33.376Z,100528.88
2022-08-17T06:19:00.888Z,100533.53
2022-08-17T06:21:27.485Z,100543.34
2022-08-17T06:23:58.578Z,100535.47
2022-08-17T06:26:25.811Z,100539.81
2022-08-17T06:28:56.733Z,100531.94
2022-08-17T06:31:23.162Z,100542.84
2022-08-17T06:33:49.694Z,100542.03
2022-08-17T06:36:16.225Z,100550.22
2022-08-17T06:38:42.667Z,100543.66
2022-08-17T06:41:09.215Z,100544.75
2022-08-17T06:43:35.624Z,100546.38
2022-08-17T06:46:02.095Z,100543.66
2022-08-17T06:48:30.724Z,100546.38
2022-08-17T06:50:57.217Z,100547.19
2022-08-17T06:53:23.733Z,100558.91
2022-08-17T06:55:50.076Z,100546.38
2022-08-17T06:58:16.986Z,100555.38
2022-08-17T07:00:43.534Z,100549.09
2022-08-17T07:03:10.333Z,100549.94
2022-08-17T07:05:37.153Z,100546.38
2022-08-17T07:08:05.052Z,100550.72
2022-08-17T07:10:31.438Z,100548.00
2022-08-17T07:12:57.883Z,100548.81
2022-08-17T07:15:24.543Z,100548.81
2022-08-17T07:17:51.017Z,100551.53
2022-08-17T07:20:17.563Z,100547.69
2022-08-17T07:22:57.730Z,100554.28
2022-08-17T07:25:27.003Z,100555.09
2022-08-17T07:27:53.447Z,100548.53
2022-08-17T07:30:20.113Z,100551.25
2022-08-17T07:32:46.457Z,100548.53
2022-08-17T07:35:15.456Z,100546.63
2022-08-17T07:37:42.266Z,100551.75
2022-08-17T07:40:15.850Z,100542.75
2022-08-17T07:42:46.727Z,100541.66
2022-08-17T07:45:13.520Z,100551.47
2022-08-17T07:47:39.903Z,100542.16
2022-08-17T07:50:06.913Z,100550.88
2022-08-17T07:52:51.049Z,100542.16
2022-08-17T07:55:18.683Z,100545.72
2022-08-17T07:57:45.089Z,100552.50
2022-08-17T08:00:15.310Z,100547.03
2022-08-17T08:02:42.919Z,100549.47
2022-08-17T08:05:10.140Z,100539.38
2022-08-17T08:07:36.469Z,100548.63
2022-08-17T08:10:02.984Z,100540.97
2022-08-17T08:12:33.701Z,100544.81
2022-08-17T08:15:00.351Z,100537.97
2022-08-17T08:17:27.183Z,100545.31
2022-08-17T08:19:53.875Z,100538.97
2022-08-17T08:22:20.195Z,100544.75
2022-08-17T08:24:46.665Z,100541.47
2022-08-17T08:27:13.016Z,100552.72
2022-08-17T08:29:39.615Z,100544.16
2022-08-17T08:32:05.924Z,100541.41
2022-08-17T08:34:53.449Z,100550.13
2022-08-17T08:37:27.475Z,100558.31
2022-08-17T08:39:59.226Z,100549.00
2022-08-17T08:42:27.125Z,100543.53
2022-08-17T08:44:59.681Z,100538.59
2022-08-17T08:47:30.610Z,100534.25
2022-08-17T08:50:04.503Z,100534.03
2022-08-17T08:52:31.806Z,100534.16
2022-08-17T08:54:58.311Z,100533.03
2022-08-17T08:57:30.961Z,100530.31
2022-08-17T09:00:00.044Z,100531.94
2022-08-17T09:02:26.543Z,100523.72
2022-08-17T09:05:13.463Z,100520.22
2022-08-17T09:07:39.178Z,100522.31
2022-08-17T09:10:05.896Z,100526.75
2022-08-17T09:12:33.188Z,100526.16
2022-08-17T09:14:59.614Z,100525.69
2022-08-17T09:17:25.928Z,100532.75
2022-08-17T09:19:52.359Z,100540.66
2022-08-17T09:22:18.836Z,100538.72
2022-08-17T09:24:45.316Z,100536.81
2022-08-17T09:27:11.583Z,100528.31
2022-08-17T09:29:38.206Z,100529.94
2022-08-17T09:32:04.532Z,100521.72
2022-08-17T09:34:33.054Z,100514.34
2022-08-17T09:36:59.495Z,100515.16
2022-08-17T09:39:26.082Z,100515.16
2022-08-17T09:41:52.494Z,100512.41
2022-08-17T09:44:22.645Z,100514.34
2022-08-17T09:46:50.289Z,100517.09
2022-08-17T09:49:23.180Z,100513.53
2022-08-17T09:51:51.546Z,100511.94
2022-08-17T09:54:37.961Z,100511.63
2022-08-17T09:57:27.924Z,100515.16
2022-08-17T09:59:50.875Z,100519.19
2022-08-17T10:02:17.455Z,100520.31
2022-08-17T10:04:43.990Z,100518.72
2022-08-17T10:07:10.380Z,100516.75
2022-08-17T10:09:36.682Z,100512.94
2022-08-17T10:12:04.012Z,100508.56
2022-08-17T10:14:36.758Z,100497.66
2022-08-17T10:17:04.492Z,100506.06
2022-08-17T10:19:31.149Z,100500.09
2022-08-17T10:22:00.933Z,100501.41
2022-08-17T10:24:28.327Z,100506.66
2022-08-17T10:26:56.662Z,100504.44
2022-08-17T10:29:23.859Z,100506.06
2022-08-17T10:31:53.512Z,100510.41
2022-08-17T10:34:19.787Z,100512.31
2022-08-17T10:36:46.142Z,100512.31
2022-08-17T10:39:12.497Z,100516.19
2022-08-17T10:41:40.486Z,100517.59
2022-08-17T10:44:39.217Z,100524.06
2022-08-17T10:46:53.333Z,100517.78
2022-08-17T10:49:19.662Z,100524.06
2022-08-17T10:51:46.486Z,100525.69
2022-08-17T10:54:22.301Z,100507.69
2022-08-17T10:56:48.704Z,100510.13
2022-08-17T10:59:15.034Z,100515.88
2022-08-17T11:01:41.442Z,100513.97
2022-08-17T11:04:07.736Z,100513.16
2022-08-17T11:06:34.363Z,100518.59
2022-08-17T11:09:00.749Z,100520.22
2022-08-17T11:11:27.153Z,100504.66
2022-08-17T11:13:53.534Z,100513.63
2022-08-17T11:16:19.911Z,100517.19
2022-08-17T11:18:47.287Z,100512.03
2022-08-17T11:21:13.851Z,100521.84
2022-08-17T11:23:40.354Z,100512.56
2022-08-17T11:26:06.647Z,100505.44
2022-08-17T11:28:32.970Z,100511.72
2022-08-17T11:30:59.340Z,100512.56
2022-08-17T11:33:26.750Z,100509.81
2022-08-17T11:35:53.379Z,100499.97
2022-08-17T11:38:19.943Z,100503.53
2022-08-17T11:40:46.405Z,100504.34
2022-08-17T11:43:12.779Z,100499.97
2022-08-17T11:45:40.397Z,100498.91
2022-08-17T11:48:27.177Z,100505.16
2022-08-17T11:50:53.178Z,100500.50
2022-08-17T11:53:19.741Z,100501.63
2022-08-17T11:55:46.185Z,100497.91
2022-08-17T11:58:12.814Z,100490.06
2022-08-17T12:00:39.314Z,100487.75
2022-08-17T12:03:06.229Z,100482.59
2022-08-17T12:05:32.942Z,100486.31
2022-08-17T12:07:59.260Z,100494.84
2022-08-17T12:10:25.621Z,100491.91
2022-08-17T12:12:53.218Z,100496.06
2022-08-17T12:15:19.522Z,100491.09
2022-08-17T12:17:45.860Z,100486.44
2022-08-17T12:20:12.858Z,100491.19
2022-08-17T12:22:39.388Z,100485.28
2022-08-17T12:25:06.415Z,100486.28
2022-08-17T12:27:52.992Z,100486.41
2022-08-17T12:30:19.258Z,100487.53
2022-08-17T12:32:45.708Z,100486.59
2022-08-17T12:35:12.027Z,100480.94
2022-08-17T12:37:38.323Z,100472.22
2022-08-17T12:40:04.886Z,100476.06
2022-08-17T12:42:31.349Z,100475.28
2022-08-17T12:44:59.070Z,100474.44
2022-08-17T12:47:25.470Z,100477.19
2022-08-17T12:49:55.810Z,100480.75
2022-08-17T12:52:22.292Z,100473.34
2022-08-17T12:54:48.749Z,100473.34
2022-08-17T12:57:15.087Z,100469.19
2022-08-17T12:59:41.664Z,100465.66
2022-08-17T13:02:08.376Z,100455.81
2022-08-17T13:04:35.099Z,100466.75
2022-08-17T13:07:01.538Z,100459.38
2022-08-17T13:09:35.691Z,100453.09
2022-08-17T13:12:06.362Z,100448.44
2022-08-17T13:14:34.194Z,100452.00
2022-08-17T13:17:00.754Z,100449.25
2022-08-17T13:19:39.693Z,100452.00
2022-08-17T13:22:08.166Z,100446.53
2022-08-17T13:24:38.391Z,100451.66
2022-08-17T13:27:08.107Z,100446.81
2022-08-17T13:29:35.122Z,100450.34
2022-08-17T13:32:04.385Z,100442.16
2022-08-17T13:34:31.530Z,100443.78
2022-08-17T13:36:59.697Z,100441.06
2022-08-17T13:39:26.875Z,100441.84
2022-08-17T13:41:54.270Z,100436.38
2022-08-17T13:44:20.693Z,100437.69
2022-08-17T13:46:47.346Z,100420.22
2022-08-17T13:49:19.373Z,100424.84
2022-08-17T13:51:45.746Z,100431.13
2022-08-17T13:54:12.101Z,100428.41
2022-08-17T13:56:39.495Z,100427.59
2022-08-17T13:59:06.285Z,100439.81
2022-08-17T14:01:32.744Z,100430.81
2022-08-17T14:03:59.511Z,100435.97
2022-08-17T14:06:52.334Z,100436.78
2022-08-17T14:09:12.223Z,100442.25
2022-08-17T14:11:38.647Z,100445.81
2022-08-17T14:14:05.192Z,100428.59
2022-08-17T14:16:31.842Z,100436.78
2022-08-17T14:18:58.213Z,100432.16
2022-08-17T14:21:24.623Z,100438.41
2022-08-17T14:23:54.570Z,100444.69
2022-08-17T14:26:21.659Z,100447.44
2022-08-17T14:28:56.247Z,100431.03
2022-08-17T14:31:23.125Z,100438.41
2022-08-17T14:33:49.458Z,100436.50
2022-08-17T14:36:15.809Z,100439.22
2022-08-17T14:38:42.438Z,100435.69
2022-08-17T14:41:08.833Z,100436.50
2022-08-17T14:43:35.179Z,100432.63
2022-08-17T14:46:01.674Z,100420.88
2022-08-17T14:48:28.606Z,100409.94
2022-08-17T14:50:55.078Z,100413.50
2022-08-17T14:53:21.566Z,100413.50
2022-08-17T14:55:47.957Z,100413.22
2022-08-17T14:58:15.070Z,100414.00
2022-08-17T15:00:41.417Z,100411.25
2022-08-17T15:03:08.115Z,100409.34
2022-08-17T15:05:34.825Z,100410.97
2022-08-17T15:08:01.491Z,100411.78
2022-08-17T15:10:27.858Z,100412.28
2022-08-17T15:12:54.250Z,100406.00
2022-08-17T15:15:20.621Z,100406.81
2022-08-17T15:17:46.979Z,100401.34
2022-08-17T15:20:15.000Z,100395.56
2022-08-17T15:22:41.818Z,100405.72
2022-08-17T15:25:08.211Z,100403.78
2022-08-17T15:27:34.936Z,100407.03
2022-08-17T15:30:01.316Z,100405.09
2022-08-17T15:32:27.732Z,100403.47
2022-08-17T15:34:54.294Z,100398.81
2022-08-17T15:37:20.937Z,100398.00
2022-08-17T15:39:48.715Z,100407.81
2022-08-17T15:42:15.032Z,100409.47
2022-08-17T15:44:41.463Z,100407.81
2022-08-17T15:47:07.892Z,100405.91
2022-08-17T15:49:34.234Z,100401.25
2022-08-17T15:52:00.583Z,100405.91
2022-08-17T15:54:26.962Z,100412.19
2022-08-17T15:57:00.921Z,100408.34
2022-08-17T15:59:27.704Z,100411.84
2022-08-17T16:03:15.301Z,100414.59
2022-08-17T16:04:43.880Z,100402.88
2022-08-17T16:07:10.567Z,100405.28
2022-08-17T16:09:37.605Z,100393.53
2022-08-17T16:12:03.990Z,100393.53
2022-08-17T16:14:33.781Z,100400.91
2022-08-17T16:17:01.790Z,100397.41
2022-08-17T16:19:28.225Z,100393.53
2022-08-17T16:21:54.978Z,100402.03
2022-08-17T16:24:21.633Z,100398.53
2022-08-17T16:26:47.935Z,100397.41
2022-08-17T16:29:14.476Z,100409.13
2022-08-17T16:31:40.877Z,100399.00
2022-08-17T16:34:17.284Z,100404.47
2022-08-17T16:36:54.812Z,100404.47
2022-08-17T16:39:22.333Z,100397.41
2022-08-17T16:41:49.021Z,100400.91
2022-08-17T16:44:15.760Z,100399.00
2022-08-17T16:46:45.615Z,100397.41
2022-08-17T16:49:12.434Z,100395.44
2022-08-17T16:51:54.074Z,100390.81
2022-08-17T16:54:22.930Z,100391.94
2022-08-17T16:56:49.283Z,100386.47
2022-08-17T16:59:30.978Z,100382.13
2022-08-17T17:02:02.513Z,100385.63
2022-08-17T17:04:28.996Z,100387.25
2022-08-17T17:07:01.802Z,100388.38
2022-08-17T17:09:28.298Z,100391.09
2022-08-17T17:11:54.786Z,100400.13
2022-08-17T17:14:21.117Z,100402.88
2022-08-17T17:16:47.481Z,100396.56
2022-08-17T17:19:13.965Z,100395.78
2022-08-17T17:21:40.775Z,100400.13
2022-08-17T17:24:07.231Z,100390.31
2022-08-17T17:26:33.890Z,100388.69
2022-08-17T17:29:00.312Z,100394.16
2022-08-17T17:31:26.896Z,100387.88
2022-08-17T17:33:53.216Z,100389.81
2022-08-17T17:36:19.710Z,100394.97
2022-08-17T17:38:46.092Z,100394.16
2022-08-17T17:41:12.470Z,100397.19
2022-08-17T17:43:40.583Z,100405.09
2022-08-17T17:46:27.175Z,100405.09
2022-08-17T17:48:54.090Z,100409.47
2022-08-17T17:52:03.618Z,100404.28
2022-08-17T17:54:06.858Z,100400.72
2022-08-17T17:56:42.982Z,100402.34
2022-08-17T17:59:12.619Z,100403.47
2022-08-17T18:01:39.520Z,100410.84
2022-08-17T18:04:07.082Z,100411.97
2022-08-17T18:06:45.330Z,100403.47
2022-08-17T18:09:11.698Z,100409.25
2022-08-17T18:11:45.915Z,100407.31
2022-08-17T18:14:18.531Z,100407.31
2022-08-17T18:16:44.910Z,100422.59
2022-08-17T18:19:11.250Z,100419.88
2022-08-17T18:21:37.992Z,100426.47
2022-08-17T18:24:04.345Z,100427.25
2022-08-17T18:26:30.750Z,100430.81
2022-08-17T18:28:58.537Z,100426.47
2022-08-17T18:31:25.018Z,100429.19
2022-08-17T18:33:52.789Z,100421.78
2022-08-17T18:36:19.221Z,100415.81
2022-08-17T18:38:45.623Z,100417.44
2022-08-17T18:41:12.010Z,100417.44
2022-08-17T18:43:43.943Z,100422.13
2022-08-17T18:46:28.219Z,100424.50
2022-08-17T18:48:55.795Z,100421.00
2022-08-17T18:51:37.252Z,100419.63
2022-08-17T18:54:08.917Z,100421.47
2022-08-17T18:56:35.218Z,100418.25
2022-08-17T18:59:01.581Z,100419.38
2022-08-17T19:01:42.071Z,100421.28
2022-08-17T19:04:14.811Z,100421.28
2022-08-17T19:06:41.185Z,100425.94
2022-08-17T19:09:10.536Z,100430.31
2022-08-17T19:11:36.958Z,100434.97
2022-08-17T19:14:03.418Z,100436.09
2022-08-17T19:16:29.756Z,100436.09
2022-08-17T19:18:56.113Z,100432.53
2022-08-17T19:21:23.179Z,100433.66
2022-08-17T19:23:53.877Z,100432.84
2022-08-17T19:26:54.747Z,100429.78
2022-08-17T19:29:07.266Z,100420.81
2022-08-17T19:31:33.727Z,100421.91
2022-08-17T19:34:00.088Z,100423.84
2022-08-17T19:36:26.718Z,100420.28
2022-08-17T19:38:53.313Z,100422.19
2022-08-17T19:41:19.664Z,100424.13
2022-08-17T19:43:46.153Z,100425.75
2022-08-17T19:46:12.659Z,100426.88
2022-08-17T19:48:38.977Z,100424.94
2022-08-17T19:51:05.336Z,100421.41
2022-08-17T19:53:47.789Z,100424.13
2022-08-17T19:56:18.135Z,100415.94
2022-08-17T19:58:44.730Z,100421.72
2022-08-17T20:01:11.559Z,100417.84
2022-08-17T20:03:38.011Z,100416.25
2022-08-17T20:06:13.511Z,100415.41
2022-08-17T20:08:40.591Z,100416.25
2022-08-17T20:11:06.966Z,100417.38
2022-08-17T20:13:34.046Z,100420.88
2022-08-17T20:16:00.532Z,100414.63
2022-08-17T20:18:26.904Z,100409.16
2022-08-17T20:20:54.794Z,100421.72
2022-08-17T20:23:22.246Z,100420.09
2022-08-17T20:25:48.612Z,100416.53
2022-08-17T20:28:14.982Z,100419.28
2022-08-17T20:30:41.341Z,100419.56
2022-08-17T20:33:08.302Z,100415.75
2022-08-17T20:35:39.610Z,100419.56
2022-08-17T20:38:05.950Z,100416.84
2022-08-17T20:40:32.460Z,100413.03
2022-08-17T20:42:58.981Z,100411.38
2022-08-17T20:45:28.987Z,100410.28
2022-08-17T20:48:20.093Z,100410.28
2022-08-17T20:50:42.150Z,100408.66
2022-08-17T20:53:08.570Z,100405.91
2022-08-17T20:55:34.959Z,100407.03
2022-08-17T20:58:01.369Z,100402.69
2022-08-17T21:00:27.744Z,100401.56
2022-08-17T21:02:54.293Z,100407.34
2022-08-17T21:05:20.576Z,100408.16
2022-08-17T21:07:47.007Z,100401.88
2022-08-17T21:10:13.669Z,100403.00
2022-08-17T21:12:40.480Z,100408.16
2022-08-17T21:15:06.906Z,100405.41
2022-08-17T21:17:33.289Z,100407.63
2022-08-17T21:20:11.023Z,100413.09
2022-08-17T21:22:38.189Z,100421.00
2022-08-17T21:25:06.874Z,100413.91
2022-08-17T21:27:33.233Z,100415.84
2022-08-17T21:29:59.788Z,100419.38
2022-08-17T21:32:26.823Z,100424.03
2022-08-17T21:34:53.223Z,100423.25
2022-08-17T21:37:19.726Z,100418.88
2022-08-17T21:39:46.577Z,100423.25
2022-08-17T21:42:12.968Z,100420.50
2022-08-17T21:44:39.302Z,100416.94
2022-08-17T21:47:05.989Z,100414.22
2022-08-17T21:49:34.990Z,100411.78
2022-08-17T21:52:04.510Z,100407.94
2022-08-17T21:54:30.866Z,100408.75
2022-08-17T21:56:57.257Z,100420.81
2022-08-17T21:59:23.850Z,100424.34
2022-08-17T22:01:53.972Z,100428.19
2022-08-17T22:04:20.400Z,100425.97
2022-08-17T22:06:57.321Z,100441.56
2022-08-17T22:09:24.223Z,100439.94
2022-08-17T22:11:50.606Z,100436.09
2022-08-17T22:14:18.318Z,100426.28
2022-08-17T22:16:47.749Z,100432.53
2022-08-17T22:19:14.154Z,100431.75
2022-08-17T22:21:40.813Z,100424.66
2022-08-17T22:24:07.234Z,100432.53
2022-08-17T22:26:33.711Z,100439.13
2022-08-17T22:29:00.472Z,100438.31
2022-08-17T22:31:28.185Z,100442.97
2022-08-17T22:33:54.783Z,100441.34
2022-08-17T22:36:22.118Z,100442.16
2022-08-17T22:38:48.544Z,100442.16
2022-08-17T22:41:14.936Z,100438.63
2022-08-17T22:43:41.518Z,100439.41
2022-08-17T22:46:11.072Z,100442.16
2022-08-17T22:48:37.393Z,100441.34
2022-08-17T22:51:03.726Z,100445.22
2022-08-17T22:53:39.422Z,100449.56
2022-08-17T22:56:05.783Z,100447.63
2022-08-17T22:58:32.244Z,100445.22
2022-08-17T23:00:58.640Z,100442.16
2022-08-17T23:03:25.068Z,100441.66
2022-08-17T23:05:51.612Z,100437.81
2022-08-17T23:08:17.962Z,100439.75
2022-08-17T23:10:44.310Z,100442.78
2022-08-17T23:13:10.881Z,100440.03
2022-08-17T23:15:37.243Z,100442.78
2022-08-17T23:18:03.837Z,100433.47
2022-08-17T23:20:30.177Z,100440.03
2022-08-17T23:22:56.733Z,100436.50
2022-08-17T23:25:23.095Z,100439.22
2022-08-17T23:27:49.784Z,100443.88
2022-08-17T23:30:16.456Z,100439.22
2022-08-17T23:32:47.389Z,100437.63
2022-08-17T23:35:39.258Z,100443.88
2022-08-17T23:38:07.131Z,100445.81
2022-08-17T23:40:33.705Z,100439.53
2022-08-17T23:43:00.046Z,100443.38
2022-08-17T23:45:31.197Z,100439.81
2022-08-17T23:47:58.040Z,100445.28
2022-08-17T23:50:24.489Z,100441.75
2022-08-17T23:52:56.288Z,100443.38
2022-08-17T23:55:22.720Z,100438.22
2022-08-17T23:57:49.444Z,100444.50
